createdAt,value
2023-02-02T00:01:51.457Z,3.03
2023-02-02T00:04:24.147Z,3.17
2023-02-02T00:06:56.929Z,2.73
2023-02-02T00:09:29.814Z,3.23
2023-02-02T00:12:01.329Z,2.70
2023-02-02T00:14:32.051Z,2.53
2023-02-02T00:17:02.737Z,2.90
2023-02-02T00:19:33.748Z,3.07
2023-02-02T00:22:04.345Z,2.50
2023-02-02T00:24:35.076Z,2.43
2023-02-02T00:27:05.923Z,2.53
2023-02-02T00:29:36.811Z,2.93
2023-02-02T00:32:08.207Z,3.03
2023-02-02T00:34:38.900Z,3.00
2023-02-02T00:37:09.740Z,2.63
2023-02-02T00:39:40.666Z,3.00
2023-02-02T00:42:12.263Z,2.73
2023-02-02T00:45:00.408Z,2.53
2023-02-02T00:47:31.089Z,3.40
2023-02-02T00:50:01.681Z,2.97
2023-02-02T00:52:32.598Z,2.87
2023-02-02T00:55:03.243Z,3.47
2023-02-02T00:57:33.902Z,2.97
2023-02-02T01:00:07.198Z,3.50
2023-02-02T01:02:38.081Z,3.83
2023-02-02T01:05:10.077Z,3.97
2023-02-02T01:07:41.111Z,3.50
2023-02-02T01:10:15.176Z,3.80
2023-02-02T01:12:46.378Z,3.90
2023-02-02T01:15:17.624Z,3.30
2023-02-02T01:17:48.239Z,3.93
2023-02-02T01:20:21.529Z,3.50
2023-02-02T01:22:52.606Z,3.13
2023-02-02T01:25:23.558Z,3.23
2023-02-02T01:27:54.460Z,3.47
2023-02-02T01:30:25.080Z,2.77
2023-02-02T01:32:55.631Z,3.13
2023-02-02T01:35:26.645Z,2.77
2023-02-02T01:37:57.460Z,3.37
2023-02-02T01:40:28.240Z,3.37
2023-02-02T01:42:58.779Z,3.10
2023-02-02T01:45:31.178Z,3.00
2023-02-02T01:48:03.424Z,3.47
2023-02-02T01:50:36.173Z,3.07
2023-02-02T01:53:08.577Z,2.90
2023-02-02T01:55:42.312Z,3.40
2023-02-02T01:58:15.764Z,3.20
2023-02-02T02:00:47.223Z,3.23
2023-02-02T02:03:21.374Z,3.67
2023-02-02T02:05:55.264Z,3.23
2023-02-02T02:08:29.225Z,3.00
2023-02-02T02:11:00.940Z,3.50
2023-02-02T02:13:51.661Z,3.10
2023-02-02T02:16:25.224Z,3.53
2023-02-02T02:18:59.469Z,2.90
2023-02-02T02:21:54.937Z,3.40
2023-02-02T02:25:32.046Z,3.47
2023-02-02T02:28:48.025Z,2.93
2023-02-02T02:32:00.958Z,3.43
2023-02-02T02:34:37.146Z,2.67
2023-02-02T02:37:11.075Z,3.13
2023-02-02T02:39:44.490Z,2.57
2023-02-02T02:42:17.804Z,3.37
2023-02-02T02:44:50.611Z,2.60
2023-02-02T02:47:22.405Z,2.77
2023-02-02T02:49:53.015Z,3.20
2023-02-02T02:52:23.745Z,3.40
2023-02-02T02:54:57.338Z,3.10
2023-02-02T02:57:56.094Z,2.63
2023-02-02T03:00:52.554Z,4.77
2023-02-02T03:03:55.082Z,2.60
2023-02-02T03:06:29.805Z,2.80
2023-02-02T03:09:03.572Z,3.10
2023-02-02T03:11:35.912Z,2.50
2023-02-02T03:14:08.631Z,2.83
2023-02-02T03:16:39.787Z,3.37
2023-02-02T03:19:11.199Z,2.97
2023-02-02T03:21:41.801Z,3.37
2023-02-02T03:24:12.539Z,2.50
2023-02-02T03:26:43.156Z,2.90
2023-02-02T03:29:14.041Z,3.43
2023-02-02T03:31:44.767Z,3.17
2023-02-02T03:34:15.419Z,3.00
2023-02-02T03:36:46.116Z,2.97
2023-02-02T03:39:16.766Z,3.20
2023-02-02T03:41:47.451Z,3.33
2023-02-02T03:44:18.074Z,2.40
2023-02-02T03:46:48.734Z,2.87
2023-02-02T03:49:19.595Z,2.87
2023-02-02T03:51:50.385Z,2.67
2023-02-02T03:54:20.957Z,2.87
2023-02-02T03:56:51.653Z,2.83
2023-02-02T03:59:22.233Z,2.80
2023-02-02T04:01:52.806Z,2.63
2023-02-02T04:04:23.527Z,2.73
2023-02-02T04:06:54.285Z,2.43
2023-02-02T04:09:24.995Z,4.00
2023-02-02T04:11:55.585Z,2.43
2023-02-02T04:14:26.339Z,2.90
2023-02-02T04:16:56.934Z,2.77
2023-02-02T04:19:27.600Z,2.60
2023-02-02T04:21:58.189Z,2.60
2023-02-02T04:24:28.857Z,3.00
2023-02-02T04:26:59.597Z,2.70
2023-02-02T04:29:30.184Z,2.27
2023-02-02T04:32:00.733Z,3.10
2023-02-02T04:34:32.378Z,2.30
2023-02-02T04:37:02.971Z,2.20
2023-02-02T04:39:33.646Z,2.57
2023-02-02T04:42:04.476Z,2.30
2023-02-02T04:44:35.063Z,2.80
2023-02-02T04:47:05.694Z,2.30
2023-02-02T04:49:36.306Z,2.53
2023-02-02T04:52:07.657Z,2.87
2023-02-02T04:54:38.342Z,2.87
2023-02-02T04:57:08.902Z,2.30
2023-02-02T04:59:42.143Z,3.30
2023-02-02T05:02:11.840Z,2.93
2023-02-02T05:04:42.489Z,3.33
2023-02-02T05:07:13.198Z,2.43
2023-02-02T05:09:43.835Z,2.57
2023-02-02T05:12:14.511Z,2.90
2023-02-02T05:14:45.151Z,2.20
2023-02-02T05:17:15.714Z,2.63
2023-02-02T05:19:46.315Z,2.87
2023-02-02T05:22:17.038Z,2.47
2023-02-02T05:24:47.753Z,2.23
2023-02-02T05:27:18.396Z,2.77
2023-02-02T05:29:50.364Z,2.30
2023-02-02T05:32:20.970Z,2.80
2023-02-02T05:34:51.846Z,2.43
2023-02-02T05:37:22.767Z,2.45
2023-02-02T05:39:54.187Z,2.33
2023-02-02T05:42:24.891Z,2.20
2023-02-02T05:44:55.586Z,2.60
2023-02-02T05:47:26.398Z,2.87
2023-02-02T05:49:57.724Z,2.30
2023-02-02T05:52:28.710Z,2.33
2023-02-02T05:54:59.439Z,2.50
2023-02-02T05:57:30.041Z,2.47
2023-02-02T06:00:00.703Z,2.20
2023-02-02T06:02:31.339Z,2.70
2023-02-02T06:05:01.933Z,3.10
2023-02-02T06:07:32.680Z,2.30
2023-02-02T06:10:03.401Z,2.40
2023-02-02T06:12:33.972Z,2.70
2023-02-02T06:15:04.734Z,2.57
2023-02-02T06:17:35.390Z,2.20
2023-02-02T06:20:07.305Z,2.90
2023-02-02T06:22:38.101Z,2.67
2023-02-02T06:25:10.200Z,2.67
2023-02-02T06:27:40.782Z,2.93
2023-02-02T06:30:14.405Z,2.97
2023-02-02T06:32:44.982Z,2.63
2023-02-02T06:35:15.643Z,2.83
2023-02-02T06:37:46.214Z,2.80
2023-02-02T06:40:17.187Z,2.97
2023-02-02T06:42:47.866Z,3.17
2023-02-02T06:45:18.809Z,2.47
2023-02-02T06:47:49.352Z,2.63
2023-02-02T06:50:20.758Z,2.90
2023-02-02T06:52:52.202Z,2.60
2023-02-02T06:55:23.082Z,2.80
2023-02-02T06:57:58.607Z,2.90
2023-02-02T07:00:30.822Z,2.80
2023-02-02T07:03:01.594Z,3.10
2023-02-02T07:05:32.475Z,2.70
2023-02-02T07:08:03.164Z,3.47
2023-02-02T07:11:09.505Z,2.53
2023-02-02T07:13:07.244Z,2.60
2023-02-02T07:15:39.396Z,2.33
2023-02-02T07:18:10.622Z,3.27
2023-02-02T07:20:41.247Z,2.70
2023-02-02T07:23:11.818Z,2.53
2023-02-02T07:25:43.832Z,3.00
2023-02-02T07:28:14.709Z,3.40
2023-02-02T07:30:45.385Z,2.80
2023-02-02T07:33:15.944Z,2.87
2023-02-02T07:35:46.716Z,3.07
2023-02-02T07:38:17.270Z,3.83
2023-02-02T07:40:48.250Z,2.90
2023-02-02T07:43:19.522Z,2.93
2023-02-02T07:45:50.115Z,2.90
2023-02-02T07:48:20.649Z,2.87
2023-02-02T07:50:51.241Z,3.33
2023-02-02T07:53:23.618Z,2.80
2023-02-02T07:55:54.322Z,2.87
2023-02-02T07:58:24.906Z,2.77
2023-02-02T08:00:55.596Z,3.10
2023-02-02T08:03:26.217Z,2.27
2023-02-02T08:05:56.933Z,2.63
2023-02-02T08:08:28.140Z,2.77
2023-02-02T08:10:58.773Z,3.80
2023-02-02T08:13:29.326Z,2.53
2023-02-02T08:16:01.279Z,3.03
2023-02-02T08:18:31.999Z,2.90
2023-02-02T08:21:03.681Z,2.57
2023-02-02T08:23:34.577Z,3.57
2023-02-02T08:26:15.052Z,2.83
2023-02-02T08:28:47.272Z,2.87
2023-02-02T08:31:20.454Z,2.73
2023-02-02T08:33:51.817Z,3.23
2023-02-02T08:36:24.626Z,3.30
2023-02-02T08:38:55.546Z,2.63
2023-02-02T08:41:26.817Z,2.87
2023-02-02T08:43:57.489Z,2.90
2023-02-02T08:46:28.951Z,2.43
2023-02-02T08:49:00.221Z,3.20
2023-02-02T08:51:30.919Z,2.63
2023-02-02T08:54:01.545Z,2.63
2023-02-02T08:56:32.233Z,3.37
2023-02-02T08:59:05.531Z,2.57
2023-02-02T09:01:37.270Z,3.20
2023-02-02T09:04:09.535Z,2.63
2023-02-02T09:06:42.357Z,2.93
2023-02-02T09:09:14.757Z,2.80
2023-02-02T09:11:46.002Z,3.00
2023-02-02T09:14:17.349Z,3.50
2023-02-02T09:16:48.017Z,3.57
2023-02-02T09:19:18.721Z,3.53
2023-02-02T09:21:51.343Z,3.80
2023-02-02T09:24:21.970Z,3.20
2023-02-02T09:26:52.735Z,4.60
2023-02-02T09:29:23.336Z,3.63
2023-02-02T09:31:53.971Z,3.70
2023-02-02T09:34:24.877Z,3.40
2023-02-02T09:36:55.595Z,3.00
2023-02-02T09:39:26.348Z,3.63
2023-02-02T09:45:13.574Z,2.93
2023-02-02T09:47:57.244Z,3.60
2023-02-02T09:50:47.559Z,3.60
2023-02-02T09:53:54.685Z,3.60
2023-02-02T09:56:17.616Z,2.80
2023-02-02T09:58:52.238Z,2.37
2023-02-02T10:01:25.941Z,2.73
2023-02-02T10:04:02.261Z,2.87
2023-02-02T10:06:38.761Z,3.57
2023-02-02T10:09:22.847Z,2.77
2023-02-02T10:11:56.768Z,2.50
2023-02-02T10:14:31.153Z,3.33
2023-02-02T10:17:04.704Z,2.63
2023-02-02T10:19:37.892Z,3.07
2023-02-02T10:22:28.810Z,3.20
2023-02-02T10:25:00.415Z,2.87
2023-02-02T10:27:34.139Z,3.37
2023-02-02T10:30:09.036Z,2.77
2023-02-02T10:32:42.920Z,2.97
2023-02-02T10:35:31.090Z,3.00
2023-02-02T10:38:04.771Z,3.40
2023-02-02T10:40:41.882Z,3.40
2023-02-02T10:43:47.884Z,2.67
2023-02-02T10:46:23.431Z,2.87
2023-02-02T10:49:00.550Z,2.80
2023-02-02T10:51:31.199Z,2.40
2023-02-02T10:54:05.543Z,2.73
2023-02-02T10:56:39.755Z,2.53
2023-02-02T10:59:13.511Z,2.60
2023-02-02T11:01:44.126Z,2.80
2023-02-02T11:04:32.499Z,2.87
2023-02-02T11:07:03.144Z,2.50
2023-02-02T11:09:37.239Z,2.77
2023-02-02T11:12:12.937Z,2.83
2023-02-02T11:14:46.904Z,2.60
2023-02-02T11:17:23.522Z,2.37
2023-02-02T11:19:56.324Z,2.20
2023-02-02T11:22:34.052Z,2.17
2023-02-02T11:25:07.404Z,2.57
2023-02-02T11:27:41.646Z,1.90
2023-02-02T11:30:22.963Z,2.37
2023-02-02T11:32:53.834Z,2.70
2023-02-02T11:35:26.066Z,2.33
2023-02-02T11:38:01.343Z,2.53
2023-02-02T11:40:36.300Z,1.90
2023-02-02T11:43:10.313Z,2.27
2023-02-02T11:45:43.369Z,1.77
2023-02-02T11:48:18.971Z,2.00
2023-02-02T11:50:51.980Z,2.10
2023-02-02T11:53:29.267Z,1.97
2023-02-02T11:56:03.730Z,2.00
2023-02-02T11:58:45.365Z,1.80
2023-02-02T12:01:28.568Z,3.00
2023-02-02T12:04:01.717Z,2.77
2023-02-02T12:06:37.231Z,2.40
2023-02-02T12:09:13.553Z,2.27
2023-02-02T12:11:50.052Z,2.30
2023-02-02T12:14:29.213Z,2.30
2023-02-02T12:17:15.737Z,2.47
2023-02-02T12:20:03.881Z,2.13
2023-02-02T12:22:57.866Z,2.43
2023-02-02T12:25:46.508Z,2.50
2023-02-02T12:28:23.497Z,2.07
2023-02-02T12:30:57.702Z,2.53
2023-02-02T12:33:35.090Z,2.57
2023-02-02T12:39:22.450Z,2.20
2023-02-02T12:42:24.870Z,2.20
2023-02-02T12:45:24.145Z,2.80
2023-02-02T12:48:00.047Z,3.17
2023-02-02T12:50:34.370Z,3.27
2023-02-02T12:53:22.115Z,2.33
2023-02-02T12:55:56.255Z,2.80
2023-02-02T12:58:31.611Z,2.90
2023-02-02T13:01:20.294Z,2.53
2023-02-02T13:04:15.109Z,2.60
2023-02-02T13:07:11.328Z,2.50
2023-02-02T13:09:44.738Z,2.37
2023-02-02T13:12:18.019Z,1.87
2023-02-02T13:14:51.664Z,2.77
2023-02-02T13:17:25.557Z,2.20
2023-02-02T13:19:59.251Z,2.30
2023-02-02T13:22:32.758Z,2.03
2023-02-02T13:25:07.963Z,2.30
2023-02-02T13:27:40.156Z,1.80
2023-02-02T13:30:17.261Z,2.17
2023-02-02T13:32:51.017Z,2.27
2023-02-02T13:35:25.447Z,2.37
2023-02-02T13:37:59.584Z,2.13
2023-02-02T13:40:34.038Z,1.90
2023-02-02T13:43:10.324Z,2.27
2023-02-02T13:45:51.950Z,2.60
2023-02-02T13:48:29.029Z,2.00
2023-02-02T13:51:09.253Z,2.13
2023-02-02T13:53:55.287Z,2.23
2023-02-02T13:56:48.629Z,2.20
2023-02-02T13:59:29.483Z,2.63
2023-02-02T14:02:02.874Z,2.03
2023-02-02T14:04:34.137Z,1.93
2023-02-02T14:07:06.655Z,2.30
2023-02-02T14:09:39.231Z,2.03
2023-02-02T14:12:12.033Z,1.77
2023-02-02T14:14:45.517Z,2.23
2023-02-02T14:17:52.194Z,2.20
2023-02-02T14:20:48.616Z,2.47
2023-02-02T14:23:52.927Z,2.60
2023-02-02T14:26:45.074Z,2.53
2023-02-02T14:29:39.108Z,1.60
2023-02-02T14:32:34.525Z,2.37
2023-02-02T14:35:40.941Z,2.23
2023-02-02T14:38:14.761Z,1.97
2023-02-02T14:41:07.119Z,2.30
2023-02-02T14:43:48.946Z,3.00
2023-02-02T14:46:37.536Z,2.33
2023-02-02T14:49:15.779Z,2.00
2023-02-02T14:52:03.187Z,1.80
2023-02-02T14:54:38.166Z,2.40
2023-02-02T14:57:25.931Z,2.00
2023-02-02T15:00:00.920Z,3.00
2023-02-02T15:02:36.271Z,1.90
2023-02-02T15:08:29.014Z,2.00
2023-02-02T15:11:04.294Z,2.07
2023-02-02T15:13:37.887Z,1.77
2023-02-02T15:16:14.208Z,1.93
2023-02-02T15:18:48.122Z,2.10
2023-02-02T15:21:22.192Z,1.93
2023-02-02T15:23:53.109Z,2.30
2023-02-02T15:26:27.245Z,2.20
2023-02-02T15:29:01.371Z,1.93
2023-02-02T15:31:35.484Z,2.77
2023-02-02T15:34:09.682Z,2.07
2023-02-02T15:36:43.499Z,2.10
2023-02-02T15:39:17.009Z,2.03
2023-02-02T15:41:49.145Z,1.97
2023-02-02T15:44:25.064Z,2.07
2023-02-02T15:46:57.966Z,2.50
2023-02-02T15:49:35.188Z,2.30
2023-02-02T15:52:13.406Z,2.20
2023-02-02T15:54:53.683Z,2.10
2023-02-02T15:57:32.725Z,2.40
2023-02-02T16:00:05.953Z,1.90
2023-02-02T16:02:40.913Z,1.70
2023-02-02T16:05:29.569Z,2.90
2023-02-02T16:08:06.374Z,2.23
2023-02-02T16:10:35.278Z,1.60
2023-02-02T16:13:06.384Z,1.90
2023-02-02T16:15:37.095Z,1.90
2023-02-02T16:18:14.985Z,1.73
2023-02-02T16:20:47.314Z,1.40
2023-02-02T16:23:20.629Z,1.53
2023-02-02T16:25:54.229Z,1.77
2023-02-02T16:28:25.219Z,2.13
2023-02-02T16:30:56.837Z,1.83
2023-02-02T16:33:33.458Z,2.03
2023-02-02T16:36:06.085Z,2.13
2023-02-02T16:38:38.926Z,2.10
2023-02-02T16:41:11.273Z,2.03
2023-02-02T16:43:43.078Z,1.57
2023-02-02T16:46:17.753Z,2.30
2023-02-02T16:48:51.708Z,1.97
2023-02-02T16:51:28.182Z,2.03
2023-02-02T16:54:18.536Z,1.87
2023-02-02T16:59:33.701Z,1.67
2023-02-02T17:02:07.402Z,2.20
2023-02-02T17:04:38.290Z,2.00
2023-02-02T17:07:11.840Z,2.03
2023-02-02T17:09:43.680Z,2.10
2023-02-02T17:12:35.178Z,2.07
2023-02-02T17:15:03.017Z,1.60
2023-02-02T17:17:33.613Z,2.20
2023-02-02T17:20:05.555Z,1.83
2023-02-02T17:22:39.298Z,1.70
2023-02-02T17:25:13.455Z,1.90
2023-02-02T17:27:45.344Z,1.80
2023-02-02T17:30:19.948Z,1.73
2023-02-02T17:32:50.467Z,1.80
2023-02-02T17:35:23.547Z,1.57
2023-02-02T17:37:54.389Z,1.90
2023-02-02T17:40:26.137Z,2.00
2023-02-02T17:42:57.730Z,1.83
2023-02-02T17:45:33.953Z,1.87
2023-02-02T17:48:04.422Z,2.50
2023-02-02T17:50:36.703Z,1.77
2023-02-02T17:53:11.353Z,2.03
2023-02-02T17:55:44.104Z,4.23
2023-02-02T17:58:17.679Z,2.50
2023-02-02T18:00:50.782Z,3.00
2023-02-02T18:03:23.731Z,3.00
2023-02-02T18:05:57.011Z,3.47
2023-02-02T18:08:27.531Z,2.67
2023-02-02T18:10:58.319Z,2.73
2023-02-02T18:13:29.442Z,2.43
2023-02-02T18:16:00.590Z,2.17
2023-02-02T18:18:31.187Z,3.83
2023-02-02T18:21:01.690Z,3.10
2023-02-02T18:23:32.218Z,2.30
2023-02-02T18:26:12.326Z,2.83
2023-02-02T18:28:43.431Z,2.50
2023-02-02T18:31:15.557Z,2.10
2023-02-02T18:33:46.742Z,2.33
2023-02-02T18:36:20.034Z,2.50
2023-02-02T18:38:51.662Z,2.30
2023-02-02T18:41:23.668Z,2.50
2023-02-02T18:43:57.037Z,2.40
2023-02-02T18:46:28.020Z,2.23
2023-02-02T18:48:58.795Z,2.30
2023-02-02T18:51:29.497Z,2.10
2023-02-02T18:54:00.662Z,2.27
2023-02-02T18:56:32.748Z,3.13
2023-02-02T18:59:04.017Z,2.10
2023-02-02T19:01:35.453Z,3.33
2023-02-02T19:04:06.364Z,2.90
2023-02-02T19:06:54.893Z,2.90
2023-02-02T19:09:25.737Z,3.03
2023-02-02T19:11:56.614Z,3.00
2023-02-02T19:14:30.021Z,2.80
2023-02-02T19:17:05.452Z,2.57
2023-02-02T19:19:37.260Z,3.70
2023-02-02T19:22:12.928Z,2.53
2023-02-02T19:24:43.495Z,2.93
2023-02-02T19:27:18.938Z,3.20
2023-02-02T19:29:51.125Z,2.57
2023-02-02T19:32:25.169Z,2.70
2023-02-02T19:34:59.002Z,2.20
2023-02-02T19:37:31.455Z,2.63
2023-02-02T19:40:05.099Z,2.43
2023-02-02T19:42:36.493Z,2.27
2023-02-02T19:47:58.503Z,2.70
2023-02-02T19:50:31.995Z,3.17
2023-02-02T19:53:04.483Z,3.47
2023-02-02T19:55:37.435Z,2.73
2023-02-02T19:58:16.278Z,3.10
2023-02-02T20:00:47.462Z,3.13
2023-02-02T20:03:21.223Z,2.90
2023-02-02T20:05:53.974Z,2.50
2023-02-02T20:08:27.201Z,2.63
2023-02-02T20:11:01.182Z,2.80
2023-02-02T20:13:39.587Z,2.67
2023-02-02T20:18:55.144Z,2.60
2023-02-02T20:21:29.136Z,3.53
2023-02-02T20:23:59.973Z,2.83
2023-02-02T20:26:33.720Z,2.77
2023-02-02T20:29:11.997Z,2.80
2023-02-02T20:31:42.561Z,3.50
2023-02-02T20:34:24.109Z,2.60
2023-02-02T20:36:56.725Z,2.87
2023-02-02T20:39:34.971Z,2.70
2023-02-02T20:42:06.216Z,2.70
2023-02-02T20:44:37.513Z,3.23
2023-02-02T20:47:08.892Z,3.30
2023-02-02T20:49:40.613Z,3.10
2023-02-02T20:52:14.906Z,3.07
2023-02-02T20:54:45.617Z,2.77
2023-02-02T20:57:16.202Z,3.50
2023-02-02T20:59:46.846Z,3.03
2023-02-02T21:02:19.688Z,4.50
2023-02-02T21:04:50.801Z,2.93
2023-02-02T21:07:23.179Z,3.27
2023-02-02T21:09:54.108Z,4.90
2023-02-02T21:12:25.772Z,3.00
2023-02-02T21:14:56.663Z,4.70
2023-02-02T21:17:27.669Z,3.07
2023-02-02T21:19:58.283Z,7.87
2023-02-02T21:22:28.806Z,3.87
2023-02-02T21:24:59.651Z,5.37
2023-02-02T21:27:30.201Z,3.67
2023-02-02T21:30:00.702Z,3.50
2023-02-02T21:32:31.187Z,3.53
2023-02-02T21:35:01.863Z,4.33
2023-02-02T21:37:34.059Z,3.40
2023-02-02T21:40:08.154Z,4.00
2023-02-02T21:42:38.721Z,4.13
2023-02-02T21:45:34.849Z,5.43
2023-02-02T21:48:08.053Z,3.67
2023-02-02T21:50:41.445Z,3.23
2023-02-02T21:53:21.712Z,3.53
2023-02-02T21:55:55.519Z,3.67
2023-02-02T21:58:29.749Z,3.53
2023-02-02T22:01:03.664Z,3.50
2023-02-02T22:03:39.554Z,3.27
2023-02-02T22:06:26.976Z,4.00
2023-02-02T22:09:02.995Z,4.13
2023-02-02T22:11:37.173Z,4.17
2023-02-02T22:14:20.668Z,4.17
2023-02-02T22:16:53.321Z,3.60
2023-02-02T22:19:35.608Z,3.93
2023-02-02T22:22:21.897Z,3.90
2023-02-02T22:24:56.568Z,4.10
2023-02-02T22:27:32.877Z,2.97
2023-02-02T22:30:05.150Z,3.20
2023-02-02T22:32:35.634Z,4.23
2023-02-02T22:35:06.446Z,3.23
2023-02-02T22:37:37.160Z,4.57
2023-02-02T22:40:09.682Z,3.70
2023-02-02T22:42:40.508Z,3.50
2023-02-02T22:45:12.429Z,3.70
2023-02-02T22:47:42.955Z,4.70
2023-02-02T22:50:14.133Z,3.37
2023-02-02T22:52:45.245Z,4.27
2023-02-02T22:55:16.567Z,5.17
2023-02-02T22:57:47.041Z,4.20
2023-02-02T23:00:21.478Z,3.62
2023-02-02T23:02:52.507Z,4.40
2023-02-02T23:05:24.808Z,4.80
2023-02-02T23:07:56.277Z,4.00
2023-02-02T23:10:29.679Z,3.80
2023-02-02T23:13:00.302Z,4.10
2023-02-02T23:15:31.492Z,4.17
2023-02-02T23:18:02.063Z,4.17
2023-02-02T23:20:32.870Z,4.77
2023-02-02T23:23:03.443Z,4.67
2023-02-02T23:25:34.000Z,3.53
2023-02-02T23:28:04.555Z,4.27
2023-02-02T23:30:35.185Z,3.90
2023-02-02T23:33:05.794Z,3.70
2023-02-02T23:35:36.370Z,4.13
2023-02-02T23:38:06.904Z,3.67
2023-02-02T23:40:37.379Z,4.40
2023-02-02T23:43:08.006Z,4.13
2023-02-02T23:45:39.660Z,3.53
2023-02-02T23:48:11.319Z,3.77
2023-02-02T23:50:42.998Z,4.07
2023-02-02T23:53:14.227Z,4.40
2023-02-02T23:55:46.594Z,4.20
2023-02-02T23:58:17.204Z,3.33
